Terminal Aerodrome Forecast
Issued by NWS

Current Version | Previous Version | Graphics & Text | Print | Product List | Glossary On
Versions: 1 2 3 4 5 6 7 8 9 10 11 12 13 14 15 16 17 18 19 20 21 22 23 24 25 26 27 28 29 30 31 32 33 34 35 36 37 38 39 40 41 42 43 44 45 46 47 48 49 50
000
FTUS41 KRNK 200354 AAB
TAFLWB
TAF AMD
KLWB 200354Z 2004/2024 23003KT 6SM -SHRA SCT015 OVC050
     FM200700 VRB03KT 2SM BR OVC015
      TEMPO 2008/2010 1/4SM FG OVC001
     FM201300 25003KT P6SM SCT025
     FM201600 27006KT P6SM BKN050=

USA.gov is the U.S. government's official web portal to all federal, state and local government web resources and services.